createdAt,value
2023-02-08T00:01:09.548Z,-1.90
2023-02-08T00:03:37.992Z,-1.90
2023-02-08T00:06:07.392Z,-1.90
2023-02-08T00:08:35.860Z,-1.90
2023-02-08T00:11:04.237Z,-1.90
2023-02-08T00:13:32.363Z,-1.90
2023-02-08T00:16:02.000Z,-1.90
2023-02-08T00:18:30.427Z,-1.90
2023-02-08T00:20:58.575Z,-2.00
2023-02-08T00:23:27.196Z,-2.00
2023-02-08T00:25:55.235Z,-2.00
2023-02-08T00:28:23.328Z,-2.00
2023-02-08T00:30:51.344Z,-2.00
2023-02-08T00:33:21.559Z,-2.10
2023-02-08T00:35:49.616Z,-2.10
2023-02-08T00:38:17.794Z,-2.10
2023-02-08T00:40:47.194Z,-2.10
2023-02-08T00:43:15.226Z,-2.10
2023-02-08T00:45:43.551Z,-2.10
2023-02-08T00:48:11.558Z,-2.10
2023-02-08T00:50:41.237Z,-2.10
2023-02-08T00:53:09.439Z,-2.10
2023-02-08T00:55:37.468Z,-2.20
2023-02-08T00:58:05.704Z,-2.20
2023-02-08T01:00:33.878Z,-2.20
2023-02-08T01:03:02.969Z,-2.20
2023-02-08T01:05:31.042Z,-2.20
2023-02-08T01:08:00.419Z,-2.20
2023-02-08T01:10:28.515Z,-2.20
2023-02-08T01:12:56.648Z,-2.20
2023-02-08T01:15:24.658Z,-2.20
2023-02-08T01:17:55.037Z,-2.20
2023-02-08T01:20:23.550Z,-2.30
2023-02-08T01:22:51.608Z,-2.30
2023-02-08T01:25:21.177Z,-2.30
2023-02-08T01:27:49.272Z,-2.30
2023-02-08T01:30:17.547Z,-2.30
2023-02-08T01:32:45.659Z,-2.30
2023-02-08T01:35:13.703Z,-2.30
2023-02-08T01:37:41.719Z,-2.30
2023-02-08T01:40:11.926Z,-2.30
2023-02-08T01:42:41.476Z,-2.30
2023-02-08T01:45:29.792Z,-2.40
2023-02-08T01:48:13.106Z,-2.40
2023-02-08T01:50:47.914Z,-2.40
2023-02-08T01:53:16.188Z,-2.40
2023-02-08T01:55:48.675Z,-2.40
2023-02-08T01:58:20.340Z,-2.40
2023-02-08T02:00:49.651Z,-2.40
2023-02-08T02:03:19.252Z,-2.40
2023-02-08T02:05:50.878Z,-2.40
2023-02-08T02:08:19.155Z,-2.50
2023-02-08T02:10:50.505Z,-2.50
2023-02-08T02:13:23.087Z,-2.50
2023-02-08T02:15:51.580Z,-2.50
2023-02-08T02:18:24.540Z,-2.50
2023-02-08T02:21:10.972Z,-2.60
2023-02-08T02:24:19.563Z,-2.50
2023-02-08T02:27:20.987Z,-2.60
2023-02-08T02:30:34.956Z,-2.60
2023-02-08T02:33:46.838Z,-2.60
2023-02-08T02:36:23.150Z,-2.60
2023-02-08T02:39:03.753Z,-2.60
2023-02-08T02:42:00.022Z,-2.70
2023-02-08T02:44:36.459Z,-2.70
2023-02-08T02:47:11.589Z,-2.70
2023-02-08T02:49:49.335Z,-2.70
2023-02-08T02:52:21.584Z,-2.70
2023-02-08T02:54:53.252Z,-2.70
2023-02-08T02:57:28.889Z,-2.70
2023-02-08T02:59:58.594Z,-2.70
2023-02-08T03:02:28.109Z,-2.70
2023-02-08T03:04:58.709Z,-2.70
2023-02-08T03:07:58.906Z,-2.70
2023-02-08T03:10:45.935Z,-2.70
2023-02-08T03:13:26.590Z,-2.80
2023-02-08T03:16:03.076Z,-2.70
2023-02-08T03:18:38.339Z,-2.80
2023-02-08T03:21:12.827Z,-2.80
2023-02-08T03:23:47.153Z,-2.80
2023-02-08T03:26:21.596Z,-2.80
2023-02-08T03:28:57.787Z,-2.80
2023-02-08T03:31:31.805Z,-2.80
2023-02-08T03:34:07.214Z,-2.80
2023-02-08T03:36:43.988Z,-2.80
2023-02-08T03:39:17.111Z,-2.80
2023-02-08T03:41:49.719Z,-2.80
2023-02-08T03:44:21.876Z,-2.90
2023-02-08T03:46:54.367Z,-2.90
2023-02-08T03:49:26.125Z,-2.90
2023-02-08T03:51:59.067Z,-2.90
2023-02-08T03:54:30.065Z,-2.90
2023-02-08T03:57:05.011Z,-2.90
2023-02-08T03:59:37.989Z,-2.90
2023-02-08T04:02:09.224Z,-2.90
2023-02-08T04:04:40.209Z,-2.90
2023-02-08T04:07:09.761Z,-2.90
2023-02-08T04:09:38.877Z,-2.90
2023-02-08T04:12:07.863Z,-2.90
2023-02-08T04:14:35.932Z,-2.90
2023-02-08T04:17:05.100Z,-2.90
2023-02-08T04:19:33.195Z,-2.90
2023-02-08T04:22:01.236Z,-2.90
2023-02-08T04:24:30.668Z,-2.90
2023-02-08T04:26:58.696Z,-2.90
2023-02-08T04:29:27.018Z,-2.90
2023-02-08T04:31:55.133Z,-2.90
2023-02-08T04:34:23.340Z,-3.00
2023-02-08T04:36:51.406Z,-3.00
2023-02-08T04:39:19.422Z,-3.00
2023-02-08T04:41:48.831Z,-3.00
2023-02-08T04:44:16.993Z,-3.00
2023-02-08T04:46:45.105Z,-3.00
2023-02-08T04:49:13.208Z,-3.00
2023-02-08T04:51:41.227Z,-3.00
2023-02-08T04:54:09.480Z,-3.00
2023-02-08T04:56:37.576Z,-3.00
2023-02-08T04:59:07.057Z,-3.00
2023-02-08T05:01:35.160Z,-3.00
2023-02-08T05:04:03.327Z,-3.00
2023-02-08T05:06:31.352Z,-3.00
2023-02-08T05:08:59.362Z,-3.00
2023-02-08T05:11:27.956Z,-3.00
2023-02-08T05:13:56.098Z,-3.00
2023-02-08T05:16:25.518Z,-3.00
2023-02-08T05:18:53.718Z,-3.00
2023-02-08T05:21:23.804Z,-3.00
2023-02-08T05:23:52.802Z,-3.00
2023-02-08T05:26:20.983Z,-3.00
2023-02-08T05:28:49.200Z,-3.00
2023-02-08T05:31:21.338Z,-3.10
2023-02-08T05:33:51.960Z,-3.10
2023-02-08T05:36:21.253Z,-3.10
2023-02-08T05:38:49.346Z,-3.10
2023-02-08T05:41:17.714Z,-3.10
2023-02-08T05:43:46.232Z,-3.10
2023-02-08T05:46:14.909Z,-3.10
2023-02-08T05:48:43.337Z,-3.10
2023-02-08T05:51:12.739Z,-3.10
2023-02-08T05:53:40.816Z,-3.10
2023-02-08T05:56:09.077Z,-3.10
2023-02-08T05:58:37.154Z,-3.10
2023-02-08T06:01:10.350Z,-3.10
2023-02-08T06:03:38.528Z,-3.10
2023-02-08T06:06:07.341Z,-3.10
2023-02-08T06:08:36.766Z,-3.10
2023-02-08T06:11:05.115Z,-3.10
2023-02-08T06:13:33.195Z,-3.10
2023-02-08T06:16:01.474Z,-3.10
2023-02-08T06:18:29.855Z,-3.20
2023-02-08T06:20:57.945Z,-3.20
2023-02-08T06:23:26.236Z,-3.20
2023-02-08T06:25:55.592Z,-3.20
2023-02-08T06:28:23.768Z,-3.20
2023-02-08T06:30:52.559Z,-3.20
2023-02-08T06:33:21.162Z,-3.20
2023-02-08T06:35:51.888Z,-3.20
2023-02-08T06:38:20.287Z,-3.20
2023-02-08T06:40:49.116Z,-3.20
2023-02-08T06:43:18.723Z,-3.20
2023-02-08T06:45:47.332Z,-3.20
2023-02-08T06:48:15.903Z,-3.20
2023-02-08T06:50:44.244Z,-3.20
2023-02-08T06:53:12.445Z,-3.20
2023-02-08T06:55:40.548Z,-3.20
2023-02-08T06:58:08.620Z,-3.20
2023-02-08T07:00:39.245Z,-3.20
2023-02-08T07:03:07.458Z,-3.20
2023-02-08T07:05:35.899Z,-3.20
2023-02-08T07:08:04.289Z,-3.20
2023-02-08T07:10:32.385Z,-3.20
2023-02-08T07:13:00.611Z,-3.20
2023-02-08T07:15:30.778Z,-3.20
2023-02-08T07:18:00.231Z,-3.20
2023-02-08T07:20:28.246Z,-3.20
2023-02-08T07:22:56.526Z,-3.20
2023-02-08T07:25:24.510Z,-3.20
2023-02-08T07:27:52.557Z,-3.20
2023-02-08T07:30:20.798Z,-3.20
2023-02-08T07:32:48.870Z,-3.20
2023-02-08T07:35:18.368Z,-3.10
2023-02-08T07:37:46.390Z,-3.10
2023-02-08T07:40:14.471Z,-3.00
2023-02-08T07:42:42.599Z,-3.00
2023-02-08T07:45:23.202Z,-3.00
2023-02-08T07:47:51.275Z,-2.90
2023-02-08T07:50:21.050Z,-2.90
2023-02-08T07:52:49.161Z,-2.90
2023-02-08T07:55:17.747Z,-2.80
2023-02-08T07:57:46.467Z,-2.80
2023-02-08T08:00:16.607Z,-2.80
2023-02-08T08:02:44.910Z,-2.70
2023-02-08T08:05:13.228Z,-2.70
2023-02-08T08:07:42.667Z,-2.70
2023-02-08T08:10:10.949Z,-2.60
2023-02-08T08:12:39.018Z,-2.60
2023-02-08T08:15:08.284Z,-2.60
2023-02-08T08:17:36.346Z,-2.50
2023-02-08T08:20:04.505Z,-2.50
2023-02-08T08:22:32.754Z,-2.50
2023-02-08T08:25:02.171Z,-2.40
2023-02-08T08:27:30.236Z,-2.40
2023-02-08T08:29:59.825Z,-2.30
2023-02-08T08:32:27.896Z,-2.30
2023-02-08T08:34:55.969Z,-2.20
2023-02-08T08:37:24.024Z,-2.20
2023-02-08T08:39:52.049Z,-2.10
2023-02-08T08:42:21.478Z,-2.10
2023-02-08T08:44:49.604Z,-2.10
2023-02-08T08:47:17.623Z,-2.00
2023-02-08T08:49:45.720Z,-2.00
2023-02-08T08:52:14.830Z,-2.00
2023-02-08T08:54:42.918Z,-1.90
2023-02-08T08:57:10.965Z,-1.90
2023-02-08T08:59:40.454Z,-1.90
2023-02-08T09:02:08.518Z,-1.80
2023-02-08T09:04:36.763Z,-1.70
2023-02-08T09:07:04.805Z,-1.70
2023-02-08T09:09:32.874Z,-1.60
2023-02-08T09:12:01.157Z,-1.60
2023-02-08T09:14:29.312Z,-1.50
2023-02-08T09:16:58.845Z,-1.50
2023-02-08T09:19:27.851Z,-1.40
2023-02-08T09:21:57.878Z,-1.30
2023-02-08T09:24:25.961Z,-1.30
2023-02-08T09:26:54.114Z,-1.20
2023-02-08T09:29:22.242Z,-1.20
2023-02-08T09:31:50.447Z,-1.10
2023-02-08T09:34:19.888Z,-1.00
2023-02-08T09:36:48.014Z,-1.00
2023-02-08T09:39:18.037Z,-0.90
2023-02-08T09:42:03.699Z,-0.80
2023-02-08T09:44:37.936Z,-0.80
2023-02-08T09:47:11.952Z,-0.70
2023-02-08T09:49:58.811Z,-0.60
2023-02-08T09:52:34.435Z,-0.60
2023-02-08T09:55:06.611Z,-0.50
2023-02-08T09:57:37.251Z,-0.50
2023-02-08T10:00:12.056Z,-0.40
2023-02-08T10:02:42.454Z,-0.30
2023-02-08T10:05:15.241Z,-0.20
2023-02-08T10:07:44.768Z,-0.20
2023-02-08T10:10:17.021Z,-0.10
2023-02-08T10:12:52.472Z,0.00
2023-02-08T10:15:36.503Z,0.00
2023-02-08T10:18:20.085Z,0.10
2023-02-08T10:21:04.867Z,0.20
2023-02-08T10:23:49.541Z,0.30
2023-02-08T10:26:25.972Z,0.40
2023-02-08T10:29:36.915Z,0.40
2023-02-08T10:32:16.577Z,0.50
2023-02-08T10:34:48.380Z,0.60
2023-02-08T10:37:20.188Z,0.70
2023-02-08T10:39:50.660Z,0.80
2023-02-08T10:42:22.258Z,0.90
2023-02-08T10:44:58.679Z,1.00
2023-02-08T10:47:40.191Z,1.00
2023-02-08T10:50:13.368Z,1.10
2023-02-08T10:52:43.015Z,1.20
2023-02-08T10:55:15.975Z,1.30
2023-02-08T10:57:48.054Z,1.40
2023-02-08T11:00:22.265Z,1.50
2023-02-08T11:02:52.765Z,1.60
2023-02-08T11:05:23.334Z,1.70
2023-02-08T11:08:06.650Z,1.70
2023-02-08T11:10:35.347Z,1.80
2023-02-08T11:13:07.580Z,1.90
2023-02-08T11:15:41.126Z,2.00
2023-02-08T11:18:20.108Z,2.10
2023-02-08T11:20:51.054Z,2.10
2023-02-08T11:23:25.281Z,2.20
2023-02-08T11:25:53.946Z,2.30
2023-02-08T11:28:29.415Z,2.30
2023-02-08T11:30:59.973Z,2.40
2023-02-08T11:33:29.332Z,2.50
2023-02-08T11:36:01.651Z,2.50
2023-02-08T11:38:32.250Z,2.60
2023-02-08T11:41:03.284Z,2.70
2023-02-08T11:43:33.961Z,2.70
2023-02-08T11:46:04.768Z,2.80
2023-02-08T11:48:43.948Z,2.90
2023-02-08T11:51:23.945Z,2.90
2023-02-08T11:53:54.247Z,3.00
2023-02-08T11:56:24.075Z,3.00
2023-02-08T11:59:00.704Z,3.10
2023-02-08T12:01:31.141Z,3.10
2023-02-08T12:04:02.496Z,3.20
2023-02-08T12:07:00.565Z,3.20
2023-02-08T12:09:52.279Z,3.30
2023-02-08T12:12:31.593Z,3.30
2023-02-08T12:15:12.480Z,3.40
2023-02-08T12:17:58.428Z,3.40
2023-02-08T12:20:38.387Z,3.50
2023-02-08T12:23:28.414Z,3.50
2023-02-08T12:26:08.469Z,3.60
2023-02-08T12:28:47.291Z,3.60
2023-02-08T12:31:25.589Z,3.70
2023-02-08T12:34:06.470Z,3.80
2023-02-08T12:36:47.318Z,3.80
2023-02-08T12:39:52.304Z,3.90
2023-02-08T12:42:46.351Z,3.90
2023-02-08T12:45:44.678Z,4.00
2023-02-08T12:48:43.505Z,4.00
2023-02-08T12:51:21.504Z,4.10
2023-02-08T12:53:55.094Z,4.10
2023-02-08T12:56:27.803Z,4.20
2023-02-08T12:59:11.687Z,4.20
2023-02-08T13:01:46.009Z,4.30
2023-02-08T13:04:17.527Z,4.30
2023-02-08T13:06:50.691Z,4.40
2023-02-08T13:09:23.752Z,4.40
2023-02-08T13:11:56.176Z,4.40
2023-02-08T13:14:33.241Z,4.50
2023-02-08T13:17:06.896Z,4.50
2023-02-08T13:19:58.967Z,4.60
2023-02-08T13:22:27.801Z,4.60
2023-02-08T13:25:06.958Z,4.70
2023-02-08T13:27:35.973Z,4.70
2023-02-08T13:30:07.403Z,4.80
2023-02-08T13:32:42.783Z,4.80
2023-02-08T13:35:18.213Z,4.80
2023-02-08T13:37:52.863Z,4.90
2023-02-08T13:40:28.122Z,4.90
2023-02-08T13:43:00.951Z,5.00
2023-02-08T13:45:34.251Z,5.00
2023-02-08T13:48:04.209Z,5.10
2023-02-08T13:50:41.426Z,5.10
2023-02-08T13:53:10.435Z,5.10
2023-02-08T13:55:55.022Z,5.10
2023-02-08T13:58:30.858Z,5.20
2023-02-08T14:01:15.780Z,5.20
2023-02-08T14:03:44.296Z,5.20
2023-02-08T14:06:21.105Z,5.20
2023-02-08T14:08:58.253Z,5.20
2023-02-08T14:11:40.210Z,5.20
2023-02-08T14:14:17.389Z,5.20
2023-02-08T14:16:48.300Z,5.30
2023-02-08T14:19:25.063Z,5.30
2023-02-08T14:22:04.278Z,5.30
2023-02-08T14:24:35.791Z,5.30
2023-02-08T14:27:09.661Z,5.30
2023-02-08T14:29:38.741Z,5.30
2023-02-08T14:32:08.370Z,5.30
2023-02-08T14:34:40.928Z,5.30
2023-02-08T14:37:32.234Z,5.30
2023-02-08T14:40:36.056Z,5.30
2023-02-08T14:43:25.248Z,5.30
2023-02-08T14:45:55.058Z,5.30
2023-02-08T14:48:27.213Z,5.30
2023-02-08T14:51:03.896Z,5.30
2023-02-08T14:53:41.420Z,5.30
2023-02-08T14:56:19.887Z,5.30
2023-02-08T14:58:51.861Z,5.30
2023-02-08T15:01:22.472Z,5.30
2023-02-08T15:03:56.471Z,5.20
2023-02-08T15:06:49.766Z,5.20
2023-02-08T15:09:22.070Z,5.20
2023-02-08T15:11:55.802Z,5.10
2023-02-08T15:14:23.941Z,5.10
2023-02-08T15:16:53.539Z,5.10
2023-02-08T15:19:27.102Z,5.10
2023-02-08T15:21:55.251Z,5.10
2023-02-08T15:24:29.078Z,5.00
2023-02-08T15:26:58.471Z,5.00
2023-02-08T15:29:42.761Z,5.00
2023-02-08T15:32:15.297Z,5.00
2023-02-08T15:34:46.175Z,4.90
2023-02-08T15:37:18.277Z,4.80
2023-02-08T15:39:49.970Z,4.80
2023-02-08T15:42:19.345Z,4.80
2023-02-08T15:44:48.011Z,4.80
2023-02-08T15:47:19.830Z,4.70
2023-02-08T15:49:53.519Z,4.70
2023-02-08T15:52:24.179Z,4.60
2023-02-08T15:54:52.781Z,4.60
2023-02-08T15:57:31.487Z,4.50
2023-02-08T16:00:00.124Z,4.50
2023-02-08T16:02:30.985Z,4.40
2023-02-08T16:05:02.625Z,4.40
2023-02-08T16:07:34.770Z,4.30
2023-02-08T16:10:03.409Z,4.30
2023-02-08T16:12:31.705Z,4.20
2023-02-08T16:14:59.729Z,4.20
2023-02-08T16:17:34.354Z,4.10
2023-02-08T16:20:04.304Z,4.10
2023-02-08T16:22:34.303Z,4.00
2023-02-08T16:25:24.933Z,4.00
2023-02-08T16:27:53.111Z,3.90
2023-02-08T16:30:22.994Z,3.90
2023-02-08T16:32:51.214Z,3.90
2023-02-08T16:35:25.887Z,3.80
2023-02-08T16:38:00.569Z,3.80
2023-02-08T16:40:52.457Z,3.70
2023-02-08T16:43:24.587Z,3.60
2023-02-08T16:46:19.766Z,3.60
2023-02-08T16:48:51.697Z,3.50
2023-02-08T16:51:23.242Z,3.40
2023-02-08T16:53:53.186Z,3.40
2023-02-08T16:56:21.420Z,3.30
2023-02-08T16:58:49.512Z,3.30
2023-02-08T17:01:17.506Z,3.30
2023-02-08T17:03:46.079Z,3.20
2023-02-08T17:06:26.398Z,3.20
2023-02-08T17:08:54.703Z,3.10
2023-02-08T17:11:22.872Z,3.10
2023-02-08T17:13:52.081Z,3.00
2023-02-08T17:16:22.176Z,3.00
2023-02-08T17:18:51.138Z,3.00
2023-02-08T17:21:19.335Z,2.90
2023-02-08T17:23:48.927Z,2.90
2023-02-08T17:26:20.085Z,2.90
2023-02-08T17:28:48.256Z,2.80
2023-02-08T17:31:19.091Z,2.80
2023-02-08T17:33:48.269Z,2.80
2023-02-08T17:36:17.722Z,2.80
2023-02-08T17:38:48.632Z,2.70
2023-02-08T17:41:18.512Z,2.70
2023-02-08T17:43:47.135Z,2.60
2023-02-08T17:46:18.374Z,2.60
2023-02-08T17:48:48.339Z,2.60
2023-02-08T17:51:19.852Z,2.60
2023-02-08T17:53:49.532Z,2.50
2023-02-08T17:56:19.339Z,2.50
2023-02-08T17:58:51.260Z,2.50
2023-02-08T18:01:24.334Z,2.40
2023-02-08T18:03:53.080Z,2.40
2023-02-08T18:06:23.058Z,2.40
2023-02-08T18:08:52.680Z,2.30
2023-02-08T18:11:23.345Z,2.30
2023-02-08T18:13:53.381Z,2.30
2023-02-08T18:16:23.548Z,2.20
2023-02-08T18:18:51.770Z,2.20
2023-02-08T18:21:22.154Z,2.20
2023-02-08T18:23:50.486Z,2.10
2023-02-08T18:26:24.389Z,2.10
2023-02-08T18:28:52.816Z,2.10
2023-02-08T18:31:21.851Z,2.00
2023-02-08T18:33:51.228Z,2.00
2023-02-08T18:36:20.562Z,2.00
2023-02-08T18:38:51.096Z,1.90
2023-02-08T18:41:23.362Z,1.90
2023-02-08T18:43:53.251Z,1.90
2023-02-08T18:46:23.043Z,1.80
2023-02-08T18:48:52.669Z,1.80
2023-02-08T18:51:21.276Z,1.80
2023-02-08T18:53:54.936Z,1.80
2023-02-08T18:56:27.008Z,1.70
2023-02-08T18:58:56.628Z,1.70
2023-02-08T19:01:25.959Z,1.70
2023-02-08T19:03:54.727Z,1.70
2023-02-08T19:06:25.028Z,1.60
2023-02-08T19:08:54.883Z,1.60
2023-02-08T19:11:25.598Z,1.60
2023-02-08T19:13:54.552Z,1.60
2023-02-08T19:16:24.462Z,1.60
2023-02-08T19:18:53.989Z,1.50
2023-02-08T19:21:22.026Z,1.50
2023-02-08T19:23:52.869Z,1.50
2023-02-08T19:26:23.095Z,1.50
2023-02-08T19:28:53.178Z,1.40
2023-02-08T19:31:23.816Z,1.40
2023-02-08T19:33:57.007Z,1.40
2023-02-08T19:36:27.066Z,1.40
2023-02-08T19:38:56.739Z,1.30
2023-02-08T19:41:27.031Z,1.30
2023-02-08T19:43:56.469Z,1.30
2023-02-08T19:46:26.581Z,1.20
2023-02-08T19:48:56.982Z,1.20
2023-02-08T19:51:25.484Z,1.20
2023-02-08T19:53:54.189Z,1.20
2023-02-08T19:56:23.146Z,1.10
2023-02-08T19:58:51.224Z,1.10
2023-02-08T20:01:22.477Z,1.10
2023-02-08T20:03:53.644Z,1.10
2023-02-08T20:06:24.363Z,1.00
2023-02-08T20:08:52.454Z,1.00
2023-02-08T20:11:22.826Z,1.00
2023-02-08T20:13:51.675Z,1.00
2023-02-08T20:16:22.385Z,1.00
2023-02-08T20:18:50.865Z,0.90
2023-02-08T20:21:19.684Z,0.90
2023-02-08T20:23:48.723Z,0.90
2023-02-08T20:26:19.170Z,0.90
2023-02-08T20:28:50.302Z,0.80
2023-02-08T20:31:21.987Z,0.80
2023-02-08T20:33:50.434Z,0.80
2023-02-08T20:36:20.069Z,0.80
2023-02-08T20:38:49.266Z,0.70
2023-02-08T20:41:18.312Z,0.70
2023-02-08T20:43:47.270Z,0.70
2023-02-08T20:46:23.248Z,0.70
2023-02-08T20:48:52.216Z,0.60
2023-02-08T20:51:22.994Z,0.60
2023-02-08T20:53:51.673Z,0.60
2023-02-08T20:56:21.155Z,0.60
2023-02-08T20:58:49.968Z,0.50
2023-02-08T21:01:21.146Z,0.50
2023-02-08T21:03:51.093Z,0.50
2023-02-08T21:06:21.806Z,0.50
2023-02-08T21:08:51.968Z,0.40
2023-02-08T21:11:21.389Z,0.40
2023-02-08T21:13:49.804Z,0.40
2023-02-08T21:16:18.940Z,0.30
2023-02-08T21:18:47.907Z,0.30
2023-02-08T21:21:17.672Z,0.30
2023-02-08T21:23:46.319Z,0.20
2023-02-08T21:26:16.113Z,0.20
2023-02-08T21:28:44.436Z,0.20
2023-02-08T21:31:15.608Z,0.20
2023-02-08T21:33:44.717Z,0.10
2023-02-08T21:36:14.693Z,0.10
2023-02-08T21:38:44.725Z,0.10
2023-02-08T21:41:17.319Z,0.00
2023-02-08T21:43:45.513Z,0.00
2023-02-08T21:46:14.095Z,0.00
2023-02-08T21:49:14.497Z,0.00
2023-02-08T21:52:02.015Z,0.00
2023-02-08T21:54:45.627Z,-0.10
2023-02-08T21:57:18.586Z,-0.10
2023-02-08T21:59:47.676Z,-0.10
2023-02-08T22:02:21.733Z,-0.10
2023-02-08T22:04:50.704Z,-0.20
2023-02-08T22:07:18.918Z,-0.20
2023-02-08T22:09:48.945Z,-0.20
2023-02-08T22:12:20.577Z,-0.20
2023-02-08T22:14:49.193Z,-0.20
2023-02-08T22:17:17.748Z,-0.20
2023-02-08T22:19:46.228Z,-0.20
2023-02-08T22:22:14.327Z,-0.30
2023-02-08T22:24:42.577Z,-0.30
2023-02-08T22:27:12.619Z,-0.30
2023-02-08T22:29:40.735Z,-0.30
2023-02-08T22:32:09.983Z,-0.30
2023-02-08T22:34:38.473Z,-0.40
2023-02-08T22:37:06.557Z,-0.40
2023-02-08T22:39:35.726Z,-0.40
2023-02-08T22:42:08.220Z,-0.40
2023-02-08T22:44:37.962Z,-0.40
2023-02-08T22:47:07.344Z,-0.40
2023-02-08T22:49:35.661Z,-0.40
2023-02-08T22:52:05.418Z,-0.40
2023-02-08T22:54:33.593Z,-0.50
2023-02-08T22:57:01.751Z,-0.50
2023-02-08T22:59:29.858Z,-0.50
2023-02-08T23:01:59.308Z,-0.50
2023-02-08T23:04:27.411Z,-0.50
2023-02-08T23:06:55.657Z,-0.50
2023-02-08T23:09:23.852Z,-0.60
2023-02-08T23:11:52.004Z,-0.60
2023-02-08T23:14:20.104Z,-0.60
2023-02-08T23:16:48.319Z,-0.60
2023-02-08T23:19:19.270Z,-0.60
2023-02-08T23:21:47.381Z,-0.60
2023-02-08T23:24:15.434Z,-0.70
2023-02-08T23:26:43.662Z,-0.70
2023-02-08T23:29:11.830Z,-0.70
2023-02-08T23:31:41.278Z,-0.70
2023-02-08T23:34:11.373Z,-0.70
2023-02-08T23:36:40.948Z,-0.70
2023-02-08T23:39:09.102Z,-0.70
2023-02-08T23:41:37.259Z,-0.80
2023-02-08T23:44:06.061Z,-0.80
2023-02-08T23:46:34.751Z,-0.80
2023-02-08T23:49:02.889Z,-0.80
2023-02-08T23:51:31.020Z,-0.80
2023-02-08T23:54:00.663Z,-0.80
2023-02-08T23:56:31.894Z,-0.80
2023-02-08T23:59:00.741Z,-0.80
